createdAt,value
2023-01-06T00:01:38.546Z,13.10
2023-01-06T00:04:07.036Z,13.05
2023-01-06T00:06:35.557Z,13.02
2023-01-06T00:09:05.961Z,12.99
2023-01-06T00:11:34.729Z,12.97
2023-01-06T00:14:03.195Z,12.92
2023-01-06T00:16:31.674Z,12.87
2023-01-06T00:19:01.597Z,12.85
2023-01-06T00:21:30.843Z,12.84
2023-01-06T00:23:59.359Z,12.81
2023-01-06T00:26:27.936Z,12.76
2023-01-06T00:28:57.928Z,12.74
2023-01-06T00:31:26.309Z,12.67
2023-01-06T00:33:58.258Z,12.64
2023-01-06T00:36:26.904Z,12.62
2023-01-06T00:38:55.359Z,12.62
2023-01-06T00:41:45.628Z,12.60
2023-01-06T00:44:14.085Z,12.56
2023-01-06T00:46:42.440Z,12.53
2023-01-06T00:49:10.867Z,12.52
2023-01-06T00:51:41.219Z,12.49
2023-01-06T00:54:12.193Z,12.47
2023-01-06T00:56:43.646Z,12.45
2023-01-06T00:59:14.871Z,12.45
2023-01-06T01:01:44.560Z,12.45
2023-01-06T01:04:12.937Z,12.44
2023-01-06T01:06:43.705Z,12.43
2023-01-06T01:09:22.843Z,12.43
2023-01-06T01:12:09.933Z,12.39
2023-01-06T01:14:48.193Z,12.34
2023-01-06T01:17:20.191Z,12.33
2023-01-06T01:19:50.611Z,12.30
2023-01-06T01:22:19.535Z,12.31
2023-01-06T01:24:47.797Z,12.29
2023-01-06T01:27:16.497Z,12.28
2023-01-06T01:29:44.888Z,12.27
2023-01-06T01:32:13.382Z,12.25
2023-01-06T01:34:41.710Z,12.24
2023-01-06T01:37:10.133Z,12.22
2023-01-06T01:39:38.567Z,12.16
2023-01-06T01:42:15.487Z,12.11
2023-01-06T01:45:03.019Z,12.05
2023-01-06T01:47:40.306Z,11.99
2023-01-06T01:50:23.637Z,11.93
2023-01-06T01:52:56.151Z,11.88
2023-01-06T01:55:26.352Z,11.84
2023-01-06T01:58:18.511Z,11.79
2023-01-06T02:00:47.109Z,11.76
2023-01-06T02:03:17.000Z,11.75
2023-01-06T02:05:52.344Z,11.76
2023-01-06T02:08:28.275Z,11.75
2023-01-06T02:10:56.789Z,11.72
2023-01-06T02:13:25.423Z,11.71
2023-01-06T02:16:06.002Z,11.72
2023-01-06T02:19:13.794Z,11.73
2023-01-06T02:22:15.532Z,11.75
2023-01-06T02:25:09.206Z,11.77
2023-01-06T02:27:40.208Z,11.76
2023-01-06T02:30:30.248Z,11.78
2023-01-06T02:33:28.634Z,11.78
2023-01-06T02:36:20.023Z,11.80
2023-01-06T02:39:14.205Z,11.83
2023-01-06T02:42:06.490Z,11.82
2023-01-06T02:44:40.242Z,11.82
2023-01-06T02:47:43.302Z,11.82
2023-01-06T02:50:42.092Z,11.83
2023-01-06T02:53:33.524Z,11.82
2023-01-06T02:56:03.770Z,11.82
2023-01-06T02:58:40.213Z,11.82
2023-01-06T03:01:16.548Z,11.83
2023-01-06T03:03:48.958Z,11.83
2023-01-06T03:06:22.675Z,11.80
2023-01-06T03:08:54.617Z,11.78
2023-01-06T03:11:24.010Z,11.77
2023-01-06T03:14:00.995Z,11.71
2023-01-06T03:16:29.449Z,11.68
2023-01-06T03:18:59.352Z,11.64
2023-01-06T03:21:34.225Z,11.61
2023-01-06T03:24:02.863Z,11.52
2023-01-06T03:26:32.167Z,11.47
2023-01-06T03:29:01.716Z,11.45
2023-01-06T03:32:03.796Z,11.41
2023-01-06T03:35:06.085Z,11.37
2023-01-06T03:38:01.659Z,11.32
2023-01-06T03:40:44.715Z,11.30
2023-01-06T03:43:43.352Z,11.28
2023-01-06T03:46:50.344Z,11.24
2023-01-06T03:49:35.602Z,11.21
2023-01-06T03:52:13.213Z,11.17
2023-01-06T03:54:44.344Z,11.12
2023-01-06T03:57:17.439Z,11.10
2023-01-06T04:00:00.107Z,11.09
2023-01-06T04:02:29.069Z,11.07
2023-01-06T04:05:19.164Z,11.05
2023-01-06T04:07:48.132Z,11.05
2023-01-06T04:10:19.059Z,11.05
2023-01-06T04:12:47.374Z,11.05
2023-01-06T04:15:19.720Z,11.05
2023-01-06T04:17:49.127Z,11.03
2023-01-06T04:20:29.403Z,11.00
2023-01-06T04:22:59.018Z,10.97
2023-01-06T04:25:27.679Z,10.94
2023-01-06T04:27:56.229Z,10.93
2023-01-06T04:30:24.630Z,10.87
2023-01-06T04:32:52.970Z,10.83
2023-01-06T04:35:21.295Z,10.82
2023-01-06T04:37:49.589Z,10.82
2023-01-06T04:40:18.007Z,10.80
2023-01-06T04:43:04.748Z,10.76
2023-01-06T04:45:34.300Z,10.70
2023-01-06T04:48:02.895Z,10.65
2023-01-06T04:50:31.259Z,10.60
2023-01-06T04:52:59.860Z,10.56
2023-01-06T04:55:28.252Z,10.54
2023-01-06T04:57:56.589Z,10.54
2023-01-06T05:00:25.560Z,10.49
2023-01-06T05:02:53.882Z,10.45
2023-01-06T05:05:23.188Z,10.42
2023-01-06T05:07:55.650Z,10.40
2023-01-06T05:10:24.311Z,10.38
2023-01-06T05:12:52.635Z,10.36
2023-01-06T05:15:20.955Z,10.34
2023-01-06T05:17:49.274Z,10.33
2023-01-06T05:20:17.779Z,10.33
2023-01-06T05:22:46.393Z,10.31
2023-01-06T05:25:14.853Z,10.29
2023-01-06T05:27:43.284Z,10.28
2023-01-06T05:30:12.283Z,10.23
2023-01-06T05:32:40.706Z,10.18
2023-01-06T05:35:09.429Z,10.17
2023-01-06T05:37:37.774Z,10.17
2023-01-06T05:40:06.522Z,10.14
2023-01-06T05:42:34.989Z,10.15
2023-01-06T05:45:03.465Z,10.17
2023-01-06T05:47:31.769Z,10.20
2023-01-06T05:50:00.062Z,10.22
2023-01-06T05:52:28.630Z,10.28
2023-01-06T05:54:57.226Z,10.35
2023-01-06T05:57:25.589Z,10.41
2023-01-06T05:59:53.931Z,10.45
2023-01-06T06:02:22.279Z,10.50
2023-01-06T06:04:50.725Z,10.55
2023-01-06T06:07:19.184Z,10.61
2023-01-06T06:09:47.624Z,10.63
2023-01-06T06:12:15.990Z,10.67
2023-01-06T06:14:44.323Z,10.72
2023-01-06T06:17:12.631Z,10.77
2023-01-06T06:19:41.118Z,10.82
2023-01-06T06:22:10.755Z,10.83
2023-01-06T06:24:39.245Z,10.84
2023-01-06T06:27:07.622Z,10.88
2023-01-06T06:29:35.984Z,10.93
2023-01-06T06:32:04.375Z,10.96
2023-01-06T06:34:32.764Z,10.96
2023-01-06T06:37:01.093Z,10.99
2023-01-06T06:39:29.669Z,11.02
2023-01-06T06:41:58.001Z,11.02
2023-01-06T06:44:26.409Z,11.02
2023-01-06T06:46:54.765Z,11.02
2023-01-06T06:49:23.195Z,11.05
2023-01-06T06:51:51.477Z,11.07
2023-01-06T06:54:19.857Z,11.10
2023-01-06T06:56:48.193Z,11.12
2023-01-06T06:59:16.523Z,11.14
2023-01-06T07:01:44.937Z,11.15
2023-01-06T07:04:13.574Z,11.17
2023-01-06T07:06:41.941Z,11.16
2023-01-06T07:09:10.381Z,11.16
2023-01-06T07:11:38.774Z,11.21
2023-01-06T07:14:07.208Z,11.22
2023-01-06T07:16:35.504Z,11.27
2023-01-06T07:19:03.849Z,11.29
2023-01-06T07:21:32.147Z,11.28
2023-01-06T07:24:00.600Z,11.28
2023-01-06T07:26:29.071Z,11.27
2023-01-06T07:28:57.392Z,11.26
2023-01-06T07:31:25.722Z,11.24
2023-01-06T07:33:54.869Z,11.22
2023-01-06T07:36:23.189Z,11.22
2023-01-06T07:38:51.535Z,11.22
2023-01-06T07:41:19.909Z,11.20
2023-01-06T07:43:48.188Z,11.18
2023-01-06T07:46:16.520Z,11.15
2023-01-06T07:48:44.901Z,11.10
2023-01-06T07:51:13.272Z,11.05
2023-01-06T07:53:41.743Z,11.00
2023-01-06T07:56:10.088Z,10.98
2023-01-06T07:58:38.398Z,10.98
2023-01-06T08:01:08.659Z,10.97
2023-01-06T08:03:37.334Z,11.02
2023-01-06T08:06:12.749Z,11.03
2023-01-06T08:08:42.886Z,11.07
2023-01-06T08:11:14.349Z,11.06
2023-01-06T08:13:42.723Z,11.06
2023-01-06T08:16:12.176Z,11.08
2023-01-06T08:18:40.634Z,11.10
2023-01-06T08:21:11.191Z,11.11
2023-01-06T08:23:39.998Z,11.11
2023-01-06T08:26:17.136Z,11.12
2023-01-06T08:28:46.993Z,11.14
2023-01-06T08:31:18.536Z,11.15
2023-01-06T08:33:47.468Z,11.16
2023-01-06T08:36:19.050Z,11.15
2023-01-06T08:38:48.633Z,11.16
2023-01-06T08:41:17.136Z,11.16
2023-01-06T08:43:47.039Z,11.17
2023-01-06T08:46:21.267Z,11.17
2023-01-06T08:48:50.308Z,11.19
2023-01-06T08:51:21.793Z,11.18
2023-01-06T08:53:50.352Z,11.19
2023-01-06T08:56:29.528Z,11.23
2023-01-06T08:59:02.633Z,11.25
2023-01-06T09:01:34.589Z,11.29
2023-01-06T09:04:06.750Z,11.31
2023-01-06T09:06:35.358Z,11.33
2023-01-06T09:09:06.308Z,11.36
2023-01-06T09:11:35.205Z,11.35
2023-01-06T09:14:03.623Z,11.33
2023-01-06T09:16:31.971Z,11.34
2023-01-06T09:19:00.568Z,11.33
2023-01-06T09:21:28.949Z,11.35
2023-01-06T09:23:57.362Z,11.34
2023-01-06T09:26:25.872Z,11.35
2023-01-06T09:28:54.294Z,11.35
2023-01-06T09:31:22.763Z,11.36
2023-01-06T09:33:51.142Z,11.30
2023-01-06T09:36:19.516Z,11.25
2023-01-06T09:38:47.806Z,11.21
2023-01-06T09:41:37.641Z,11.20
2023-01-06T09:44:18.986Z,11.20
2023-01-06T09:46:51.688Z,11.20
2023-01-06T09:49:44.473Z,11.18
2023-01-06T09:52:30.941Z,11.19
2023-01-06T09:55:16.427Z,11.21
2023-01-06T09:57:53.343Z,11.19
2023-01-06T10:00:48.475Z,11.20
2023-01-06T10:03:28.354Z,11.20
2023-01-06T10:06:12.035Z,11.23
2023-01-06T10:08:58.830Z,11.23
2023-01-06T10:11:32.825Z,11.20
2023-01-06T10:14:19.643Z,11.20
2023-01-06T10:17:19.624Z,11.21
2023-01-06T10:20:24.801Z,11.24
2023-01-06T10:23:15.509Z,11.24
2023-01-06T10:25:52.152Z,11.23
2023-01-06T10:28:35.324Z,11.23
2023-01-06T10:31:12.495Z,11.21
2023-01-06T10:33:50.345Z,11.21
2023-01-06T10:36:22.248Z,11.18
2023-01-06T10:38:54.728Z,11.17
2023-01-06T10:41:45.299Z,11.15
2023-01-06T10:44:15.146Z,11.14
2023-01-06T10:46:46.313Z,11.15
2023-01-06T10:49:20.142Z,11.18
2023-01-06T10:52:00.483Z,11.18
2023-01-06T10:54:35.196Z,11.20
2023-01-06T10:57:13.111Z,11.20
2023-01-06T11:00:10.709Z,11.19
2023-01-06T11:02:49.614Z,11.21
2023-01-06T11:05:29.596Z,11.21
2023-01-06T11:08:05.925Z,11.19
2023-01-06T11:10:53.913Z,11.18
2023-01-06T11:13:25.341Z,11.16
2023-01-06T11:15:55.101Z,11.17
2023-01-06T11:18:32.379Z,11.12
2023-01-06T11:21:17.143Z,11.12
2023-01-06T11:23:48.149Z,11.07
2023-01-06T11:26:20.699Z,11.02
2023-01-06T11:28:51.180Z,11.00
2023-01-06T11:31:26.943Z,10.99
2023-01-06T11:34:01.588Z,10.97
2023-01-06T11:36:34.077Z,10.97
2023-01-06T11:39:14.891Z,10.97
2023-01-06T11:41:48.310Z,10.95
2023-01-06T11:44:27.361Z,10.95
2023-01-06T11:47:20.326Z,10.95
2023-01-06T11:49:58.548Z,10.95
2023-01-06T11:52:32.150Z,10.90
2023-01-06T11:55:23.860Z,10.85
2023-01-06T11:58:17.434Z,10.81
2023-01-06T12:00:48.313Z,10.78
2023-01-06T12:03:34.081Z,10.76
2023-01-06T12:06:14.708Z,10.72
2023-01-06T12:09:12.480Z,10.69
2023-01-06T12:11:51.839Z,10.65
2023-01-06T12:14:29.759Z,10.60
2023-01-06T12:16:58.785Z,10.58
2023-01-06T12:19:40.447Z,10.57
2023-01-06T12:22:38.190Z,10.55
2023-01-06T12:25:14.387Z,10.48
2023-01-06T12:27:56.876Z,10.45
2023-01-06T12:30:36.161Z,10.44
2023-01-06T12:33:22.352Z,10.44
2023-01-06T12:35:55.669Z,10.42
2023-01-06T12:38:45.268Z,10.41
2023-01-06T12:41:38.234Z,10.41
2023-01-06T12:44:18.607Z,10.38
2023-01-06T12:46:56.950Z,10.35
2023-01-06T12:49:43.672Z,10.34
2023-01-06T12:52:36.480Z,10.34
2023-01-06T12:55:06.524Z,10.32
2023-01-06T12:57:45.743Z,10.32
2023-01-06T13:00:46.833Z,10.28
2023-01-06T13:03:18.224Z,10.27
2023-01-06T13:06:10.812Z,10.22
2023-01-06T13:09:06.125Z,10.21
2023-01-06T13:11:37.272Z,10.22
2023-01-06T13:14:14.546Z,10.18
2023-01-06T13:16:52.986Z,10.19
2023-01-06T13:19:27.036Z,10.19
2023-01-06T13:21:58.867Z,10.18
2023-01-06T13:24:45.909Z,10.19
2023-01-06T13:27:38.707Z,10.21
2023-01-06T13:30:24.986Z,10.18
2023-01-06T13:33:04.906Z,10.21
2023-01-06T13:36:00.758Z,10.19
2023-01-06T13:38:47.323Z,10.21
2023-01-06T13:41:24.164Z,10.23
2023-01-06T13:43:56.295Z,10.27
2023-01-06T13:46:27.096Z,10.29
2023-01-06T13:48:59.986Z,10.31
2023-01-06T13:51:35.196Z,10.32
2023-01-06T13:54:04.285Z,10.31
2023-01-06T13:56:37.753Z,10.31
2023-01-06T13:59:25.104Z,10.29
2023-01-06T14:01:54.315Z,10.27
2023-01-06T14:04:36.793Z,10.24
2023-01-06T14:07:06.070Z,10.21
2023-01-06T14:09:40.785Z,10.20
2023-01-06T14:12:12.902Z,10.17
2023-01-06T14:14:41.230Z,10.12
2023-01-06T14:17:33.148Z,10.09
2023-01-06T14:20:01.578Z,10.09
2023-01-06T14:22:30.801Z,10.07
2023-01-06T14:25:09.599Z,10.05
2023-01-06T14:27:47.062Z,10.07
2023-01-06T14:30:32.806Z,10.06
2023-01-06T14:33:05.930Z,10.05
2023-01-06T14:35:45.077Z,10.03
2023-01-06T14:38:25.496Z,10.03
2023-01-06T14:41:04.402Z,10.04
2023-01-06T14:43:40.901Z,10.01
2023-01-06T14:46:18.484Z,9.97
2023-01-06T14:49:02.396Z,9.95
2023-01-06T14:51:32.635Z,9.96
2023-01-06T14:54:09.871Z,9.94
2023-01-06T14:56:38.177Z,9.93
2023-01-06T14:59:12.931Z,9.95
2023-01-06T15:01:44.568Z,9.96
2023-01-06T15:04:31.647Z,9.96
2023-01-06T15:07:21.108Z,9.95
2023-01-06T15:09:51.683Z,9.97
2023-01-06T15:12:31.834Z,9.99
2023-01-06T15:15:23.997Z,9.99
2023-01-06T15:17:54.412Z,9.99
2023-01-06T15:20:40.359Z,9.91
2023-01-06T15:23:09.223Z,9.89
2023-01-06T15:25:39.358Z,9.90
2023-01-06T15:28:07.722Z,9.90
2023-01-06T15:30:37.545Z,9.91
2023-01-06T15:33:06.570Z,9.90
2023-01-06T15:35:35.080Z,9.89
2023-01-06T15:38:35.724Z,9.93
2023-01-06T15:41:06.971Z,9.99
2023-01-06T15:43:45.367Z,10.08
2023-01-06T15:46:14.711Z,10.13
2023-01-06T15:48:49.792Z,10.19
2023-01-06T15:51:22.751Z,10.24
2023-01-06T15:53:57.358Z,10.27
2023-01-06T15:56:26.897Z,10.29
2023-01-06T15:58:57.524Z,10.32
2023-01-06T16:01:26.458Z,10.36
2023-01-06T16:04:03.443Z,10.36
2023-01-06T16:06:41.677Z,10.39
2023-01-06T16:09:23.610Z,10.40
2023-01-06T16:12:01.041Z,10.46
2023-01-06T16:14:36.569Z,10.52
2023-01-06T16:17:13.699Z,10.59
2023-01-06T16:19:48.953Z,10.63
2023-01-06T16:22:34.323Z,10.68
2023-01-06T16:25:20.733Z,10.74
2023-01-06T16:27:51.908Z,10.80
2023-01-06T16:30:30.193Z,10.86
2023-01-06T16:33:01.138Z,10.88
2023-01-06T16:35:32.268Z,10.93
2023-01-06T16:38:00.925Z,10.97
2023-01-06T16:40:31.065Z,10.99
2023-01-06T16:43:02.326Z,11.05
2023-01-06T16:45:45.209Z,11.10
2023-01-06T16:48:18.164Z,11.09
2023-01-06T16:50:54.140Z,11.08
2023-01-06T16:53:24.224Z,11.08
2023-01-06T16:55:55.427Z,11.10
2023-01-06T16:58:30.321Z,11.13
2023-01-06T17:01:09.075Z,11.14
2023-01-06T17:03:39.448Z,11.15
2023-01-06T17:06:19.450Z,11.20
2023-01-06T17:08:48.721Z,11.26
2023-01-06T17:11:21.486Z,11.32
2023-01-06T17:14:00.419Z,11.40
2023-01-06T17:16:36.258Z,11.51
2023-01-06T17:19:08.420Z,11.60
2023-01-06T17:21:38.810Z,11.67
2023-01-06T17:24:09.926Z,11.77
2023-01-06T17:26:41.367Z,11.84
2023-01-06T17:29:18.520Z,11.91
2023-01-06T17:31:53.177Z,11.97
2023-01-06T17:34:24.677Z,12.03
2023-01-06T17:36:54.816Z,12.07
2023-01-06T17:39:33.646Z,12.14
2023-01-06T17:42:13.850Z,12.18
2023-01-06T17:44:47.961Z,12.23
2023-01-06T17:47:19.187Z,12.27
2023-01-06T17:49:57.914Z,12.35
2023-01-06T17:52:34.026Z,12.42
2023-01-06T17:55:26.787Z,12.50
2023-01-06T17:58:00.237Z,12.57
2023-01-06T18:00:32.322Z,12.66
2023-01-06T18:03:03.869Z,12.73
2023-01-06T18:05:34.173Z,12.80
2023-01-06T18:08:08.731Z,12.85
2023-01-06T18:10:45.855Z,12.90
2023-01-06T18:13:16.385Z,12.97
2023-01-06T18:15:46.461Z,13.06
2023-01-06T18:18:24.955Z,13.14
2023-01-06T18:21:06.980Z,13.25
2023-01-06T18:23:36.151Z,13.32
2023-01-06T18:26:28.730Z,13.41
2023-01-06T18:29:11.853Z,13.47
2023-01-06T18:31:41.589Z,13.52
2023-01-06T18:34:41.566Z,13.53
2023-01-06T18:37:09.913Z,13.57
2023-01-06T18:39:47.342Z,13.62
2023-01-06T18:42:29.383Z,13.66
2023-01-06T18:45:17.049Z,13.73
2023-01-06T18:47:47.610Z,13.81
2023-01-06T18:50:28.964Z,13.88
2023-01-06T18:53:06.393Z,13.94
2023-01-06T18:55:40.422Z,14.03
2023-01-06T18:58:36.113Z,14.13
2023-01-06T19:01:16.801Z,14.20
2023-01-06T19:03:59.026Z,14.22
2023-01-06T19:06:51.140Z,14.24
2023-01-06T19:09:39.309Z,14.29
2023-01-06T19:12:10.466Z,14.34
2023-01-06T19:14:44.137Z,14.38
2023-01-06T19:17:38.326Z,14.45
2023-01-06T19:20:17.807Z,14.46
2023-01-06T19:22:46.986Z,14.47
2023-01-06T19:25:41.890Z,14.45
2023-01-06T19:28:30.440Z,14.47
2023-01-06T19:31:06.299Z,14.47
2023-01-06T19:33:38.911Z,14.45
2023-01-06T19:36:07.189Z,14.46
2023-01-06T19:38:42.501Z,14.49
2023-01-06T19:41:20.007Z,14.52
2023-01-06T19:43:49.551Z,14.54
2023-01-06T19:46:25.091Z,14.53
2023-01-06T19:48:54.640Z,14.56
2023-01-06T19:51:22.885Z,14.63
2023-01-06T19:54:25.264Z,14.64
2023-01-06T19:56:55.501Z,14.65
2023-01-06T19:59:26.535Z,14.65
2023-01-06T20:02:23.155Z,14.64
2023-01-06T20:04:51.776Z,14.69
2023-01-06T20:07:20.461Z,14.78
2023-01-06T20:09:48.873Z,14.90
2023-01-06T20:12:17.265Z,15.00
2023-01-06T20:14:45.692Z,15.04
2023-01-06T20:17:15.514Z,15.10
2023-01-06T20:19:43.804Z,15.16
2023-01-06T20:22:12.247Z,15.22
2023-01-06T20:24:41.164Z,15.27
2023-01-06T20:27:09.519Z,15.34
2023-01-06T20:29:37.829Z,15.36
2023-01-06T20:32:09.791Z,15.38
2023-01-06T20:34:38.163Z,15.40
2023-01-06T20:37:06.628Z,15.39
2023-01-06T20:39:34.986Z,15.40
2023-01-06T20:42:05.389Z,15.44
2023-01-06T20:44:33.749Z,15.49
2023-01-06T20:47:02.166Z,15.53
2023-01-06T20:49:30.485Z,15.53
2023-01-06T20:51:58.794Z,15.50
2023-01-06T20:54:27.132Z,15.53
2023-01-06T20:56:55.434Z,15.54
2023-01-06T20:59:23.932Z,15.56
2023-01-06T21:01:52.537Z,15.57
2023-01-06T21:04:21.045Z,15.60
2023-01-06T21:06:49.380Z,15.62
2023-01-06T21:09:17.644Z,15.67
2023-01-06T21:11:45.985Z,15.73
2023-01-06T21:14:14.275Z,15.78
2023-01-06T21:16:42.684Z,15.86
2023-01-06T21:19:11.099Z,15.93
2023-01-06T21:21:39.455Z,16.00
2023-01-06T21:24:08.528Z,16.05
2023-01-06T21:26:36.997Z,16.09
2023-01-06T21:29:05.364Z,16.10
2023-01-06T21:31:33.845Z,16.11
2023-01-06T21:34:02.234Z,16.08
2023-01-06T21:36:30.607Z,16.06
2023-01-06T21:38:58.918Z,16.07
2023-01-06T21:41:45.425Z,16.10
2023-01-06T21:44:13.741Z,16.18
2023-01-06T21:46:42.162Z,16.24
2023-01-06T21:49:10.653Z,16.28
2023-01-06T21:51:39.605Z,16.28
2023-01-06T21:54:07.949Z,16.25
2023-01-06T21:56:37.484Z,16.21
2023-01-06T21:59:05.991Z,16.17
2023-01-06T22:01:34.520Z,16.13
2023-01-06T22:04:02.881Z,16.12
2023-01-06T22:06:32.151Z,16.10
2023-01-06T22:09:02.579Z,16.08
2023-01-06T22:11:32.102Z,16.01
2023-01-06T22:14:01.332Z,16.00
2023-01-06T22:16:30.116Z,16.01
2023-01-06T22:18:58.835Z,15.99
2023-01-06T22:21:27.908Z,15.98
2023-01-06T22:23:58.176Z,15.98
2023-01-06T22:26:26.649Z,16.02
2023-01-06T22:28:55.067Z,16.20
2023-01-06T22:31:23.467Z,16.39
2023-01-06T22:33:51.905Z,16.52
2023-01-06T22:36:20.296Z,16.61
2023-01-06T22:38:48.624Z,16.68
2023-01-06T22:41:17.037Z,16.67
2023-01-06T22:43:45.379Z,16.58
2023-01-06T22:46:13.848Z,16.49
2023-01-06T22:48:44.178Z,16.43
2023-01-06T22:51:14.159Z,16.43
2023-01-06T22:53:42.487Z,16.37
2023-01-06T22:56:13.283Z,16.33
2023-01-06T22:58:42.332Z,16.30
2023-01-06T23:01:11.088Z,16.29
2023-01-06T23:03:39.627Z,16.28
2023-01-06T23:06:13.548Z,16.26
2023-01-06T23:08:58.475Z,16.22
2023-01-06T23:11:28.932Z,16.21
2023-01-06T23:13:58.830Z,16.16
2023-01-06T23:16:27.764Z,16.15
2023-01-06T23:18:56.235Z,16.12
2023-01-06T23:21:27.604Z,16.08
2023-01-06T23:23:57.849Z,16.02
2023-01-06T23:26:29.845Z,15.99
2023-01-06T23:28:59.155Z,15.97
2023-01-06T23:31:30.481Z,15.94
2023-01-06T23:34:04.082Z,15.92
2023-01-06T23:36:32.493Z,15.92
2023-01-06T23:39:02.528Z,15.92
2023-01-06T23:41:33.729Z,15.95
2023-01-06T23:44:02.809Z,15.97
2023-01-06T23:46:35.011Z,15.98
2023-01-06T23:49:04.094Z,15.94
2023-01-06T23:51:33.217Z,15.91
2023-01-06T23:54:02.803Z,15.84
2023-01-06T23:56:33.045Z,15.74
2023-01-06T23:59:03.288Z,15.62
